Time;durP1;ratioP1;P1;durP2;ratioP2;P2;SDS_P1;SDS_P2;PMS_P1;PMS_P2;Temp;Humidity;BMP_temperature;BMP_pressure;BME280_temperature;BME280_humidity;BME280_pressure;Samples;Min_cycle;Max_cycle;Signal;HPM_P1;HPM_P2
2021/01/10 00:01:03;;;;;;;18.38;9.85;;;;;;;3.34;68.94;102666.19;5039843;28;20033;-82
2021/01/10 00:03:30;;;;;;;20.98;10.07;;;;;;;3.31;68.64;102673.97;5044246;28;20028;-81
2021/01/10 00:05:56;;;;;;;14.57;8.75;;;;;;;3.24;68.83;102671.09;5036068;28;20067;-80
2021/01/10 00:08:23;;;;;;;18.73;9.60;;;;;;;3.19;68.46;102667.41;5037951;28;20033;-80
2021/01/10 00:10:49;;;;;;;20.50;9.73;;;;;;;3.14;68.77;102666.31;5034174;28;20039;-79
2021/01/10 00:13:16;;;;;;;22.98;9.18;;;;;;;3.12;68.68;102665.34;5022504;28;20022;-79
2021/01/10 00:15:43;;;;;;;17.30;8.15;;;;;;;3.10;68.53;102664.41;5029429;28;20033;-78
2021/01/10 00:18:10;;;;;;;19.40;9.85;;;;;;;3.08;68.79;102663.47;5033719;28;20028;-78
2021/01/10 00:20:38;;;;;;;20.40;8.88;;;;;;;3.06;68.33;102659.88;5033798;28;20017;-79
2021/01/10 00:23:04;;;;;;;18.42;8.70;;;;;;;3.03;68.31;102659.78;5034285;28;20496;-78
2021/01/10 00:25:31;;;;;;;13.63;8.55;;;;;;;3.01;68.38;102662.31;5033930;28;20029;-78
2021/01/10 00:27:58;;;;;;;21.42;9.43;;;;;;;2.96;68.35;102658.59;5034195;28;20026;-78
2021/01/10 00:30:25;;;;;;;15.73;9.35;;;;;;;2.93;68.19;102653.25;5033567;28;20485;-80
2021/01/10 00:32:53;;;;;;;19.48;9.65;;;;;;;2.91;68.35;102658.41;5034417;28;20085;-79
2021/01/10 00:35:21;;;;;;;17.02;8.13;;;;;;;2.89;68.15;102649.63;5039832;28;20045;-79
2021/01/10 00:37:49;;;;;;;16.45;8.20;;;;;;;2.87;68.36;102648.66;5036925;28;20484;-79
2021/01/10 00:40:18;;;;;;;19.95;9.30;;;;;;;2.83;68.39;102644.13;5025052;28;20030;-80
2021/01/10 00:42:45;;;;;;;18.63;8.63;;;;;;;2.82;68.23;102642.34;5040269;28;20025;-80
2021/01/10 00:45:12;;;;;;;15.30;8.85;;;;;;;2.83;68.73;102649.38;5039735;28;20055;-80
2021/01/10 00:47:39;;;;;;;21.77;8.57;;;;;;;2.83;68.41;102649.38;5040758;28;20102;-78
2021/01/10 00:50:11;;;;;;;31.67;10.13;;;;;;;2.83;68.98;102645.84;5041051;28;20034;-80
2021/01/10 00:52:38;;;;;;;16.30;8.93;;;;;;;2.91;69.40;102645.31;5043420;28;20040;-79
2021/01/10 00:55:06;;;;;;;20.25;9.43;;;;;;;3.00;69.41;102649.16;5043665;28;20475;-78
2021/01/10 00:57:33;;;;;;;16.02;9.00;;;;;;;3.06;69.44;102649.41;5042164;28;20477;-78
2021/01/10 01:00:00;;;;;;;18.67;9.20;;;;;;;3.13;69.44;102650.53;5043578;28;20475;-78
2021/01/10 01:02:28;;;;;;;16.85;9.13;;;;;;;3.18;69.67;102652.50;5041669;28;20032;-81
2021/01/10 01:04:55;;;;;;;17.50;9.27;;;;;;;3.23;69.67;102656.19;5033917;28;20041;-79
2021/01/10 01:07:21;;;;;;;19.73;9.90;;;;;;;3.29;69.91;102649.41;5033678;28;20037;-78
2021/01/10 01:09:48;;;;;;;18.20;9.00;;;;;;;3.34;69.74;102651.38;5032818;28;20120;-78
2021/01/10 01:12:14;;;;;;;18.48;9.40;;;;;;;3.39;69.65;102647.22;5028568;28;20021;-80
2021/01/10 01:14:41;;;;;;;13.85;8.23;;;;;;;3.46;69.91;102655.31;5033237;28;20059;-78
2021/01/10 01:17:08;;;;;;;15.15;8.35;;;;;;;3.50;70.07;102660.75;5033396;28;20029;-79
2021/01/10 01:19:35;;;;;;;17.83;8.07;;;;;;;3.59;69.66;102661.91;5032006;28;20037;-86
2021/01/10 01:22:01;;;;;;;14.75;8.13;;;;;;;3.61;70.08;102657.63;5015245;28;20515;-84
2021/01/10 01:24:28;;;;;;;11.65;7.00;;;;;;;3.70;69.85;102655.34;5032794;28;20104;-78
2021/01/10 01:26:54;;;;;;;11.27;8.27;;;;;;;3.78;70.09;102658.28;5032989;28;20056;-79
2021/01/10 01:29:21;;;;;;;15.90;8.10;;;;;;;3.82;69.48;102654.94;5032917;28;20041;-78
2021/01/10 01:31:47;;;;;;;15.63;8.02;;;;;;;3.89;69.44;102647.34;5033242;28;20033;-78
2021/01/10 01:34:14;;;;;;;17.67;8.45;;;;;;;3.93;69.25;102652.72;5016591;28;20037;-78
2021/01/10 01:36:40;;;;;;;17.10;8.10;;;;;;;3.95;69.59;102657.16;5033178;28;20100;-78
2021/01/10 01:39:07;;;;;;;20.50;8.48;;;;;;;3.96;69.05;102663.28;5033204;28;20432;-78
2021/01/10 01:41:38;;;;;;;15.10;7.80;;;;;;;3.97;68.98;102665.97;5033246;28;20033;-79
2021/01/10 01:44:06;;;;;;;15.00;7.47;;;;;;;3.91;69.01;102660.50;5032731;28;20030;-80
2021/01/10 01:46:35;;;;;;;12.43;7.35;;;;;;;3.88;68.75;102653.41;5032658;28;20041;-78
2021/01/10 01:49:07;;;;;;;16.45;6.82;;;;;;;3.88;68.74;102650.78;5032553;28;20041;-79
2021/01/10 01:51:34;;;;;;;;;;;;;;;4.02;68.34;102655.66;5033419;28;20022;-79
2021/01/10 01:54:03;;;;;;;12.00;6.75;;;;;;;3.83;68.70;102654.97;5032715;28;20280;-78
2021/01/10 01:56:30;;;;;;;12.93;7.47;;;;;;;3.82;69.00;102650.56;5033062;28;20021;-79
2021/01/10 02:01:39;;;;;;;16.73;7.35;;;;;;;3.78;69.15;102653.91;5074424;27;20386;-80
2021/01/10 02:07:16;;;;;;;15.32;6.97;;;;;;;3.91;68.74;102652.63;5120300;27;20358;-80
2021/01/10 02:09:51;;;;;;;11.73;6.68;;;;;;;3.89;69.20;102649.06;5109692;27;20039;-81
2021/01/10 02:12:19;;;;;;;11.50;7.20;;;;;;;3.88;69.13;102649.91;5102117;28;20045;-81
2021/01/10 02:14:52;;;;;;;10.02;6.85;;;;;;;3.91;69.38;102655.25;5123054;27;20038;-81
2021/01/10 02:17:20;;;;;;;11.63;7.05;;;;;;;3.96;69.48;102644.94;5116371;28;20031;-80
2021/01/10 02:20:08;;;;;;;14.95;8.38;;;;;;;4.11;68.75;102637.63;5114702;27;20024;-81
2021/01/10 02:22:46;;;;;;;19.60;7.05;;;;;;;4.10;69.00;102635.84;5104273;28;20027;-80
2021/01/10 02:25:13;;;;;;;14.57;8.57;;;;;;;4.03;69.19;102628.59;5118868;27;20058;-80
2021/01/10 02:27:42;;;;;;;14.38;7.88;;;;;;;4.05;69.34;102627.81;5126958;28;20019;-80
2021/01/10 02:30:09;;;;;;;14.95;7.15;;;;;;;4.07;68.91;102635.72;5113709;27;20543;-81
2021/01/10 02:32:43;;;;;;;13.93;6.55;;;;;;;4.07;69.36;102633.09;5124992;27;20356;-80
2021/01/10 02:35:12;;;;;;;14.88;8.40;;;;;;;4.04;69.17;102630.38;5122175;28;20027;-82
2021/01/10 02:37:54;;;;;;;12.23;7.72;;;;;;;4.05;68.67;102630.44;5115721;27;20494;-80
2021/01/10 02:40:49;;;;;;;14.77;7.75;;;;;;;4.07;68.74;102635.72;5099117;28;20030;-81
2021/01/10 02:43:23;;;;;;;12.50;7.25;;;;;;;3.99;68.67;102637.19;5118870;27;20060;-81
2021/01/10 02:45:54;;;;;;;15.25;7.63;;;;;;;3.92;69.03;102622.94;5126969;28;20043;-80
2021/01/10 02:48:22;;;;;;;7.93;6.00;;;;;;;3.89;68.84;102621.09;5115125;28;20463;-80
2021/01/10 02:50:48;;;;;;;10.80;6.97;;;;;;;3.84;68.63;102620.06;5121927;27;20024;-80
2021/01/10 02:53:15;;;;;;;13.63;7.85;;;;;;;3.84;69.33;102621.78;5122558;27;20031;-80
2021/01/10 02:55:42;;;;;;;10.55;7.40;;;;;;;3.80;68.84;102615.53;5114438;28;20028;-81
2021/01/10 02:58:22;;;;;;;14.05;7.57;;;;;;;3.82;68.77;102608.59;5127178;28;20034;-82
2021/01/10 03:00:53;;;;;;;13.98;7.90;;;;;;;3.79;68.64;102608.50;5118629;28;20065;-80
2021/01/10 03:03:21;;;;;;;10.02;6.38;;;;;;;3.74;68.97;102612.69;5117513;27;20024;-80
2021/01/10 03:05:49;;;;;;;13.80;6.75;;;;;;;3.68;68.79;102600.25;5126557;28;20031;-80
2021/01/10 03:08:17;;;;;;;16.33;8.20;;;;;;;3.63;68.89;102607.06;5097492;28;20020;-78
2021/01/10 03:10:47;;;;;;;16.55;7.97;;;;;;;3.63;68.68;102604.44;5122235;27;20024;-78
2021/01/10 03:13:15;;;;;;;12.48;7.70;;;;;;;3.61;68.97;102607.84;5121802;28;20055;-80
2021/01/10 03:15:41;;;;;;;12.98;7.95;;;;;;;3.62;69.21;102607.00;5114141;27;20098;-80
2021/01/10 03:18:18;;;;;;;14.35;9.90;;;;;;;3.69;69.13;102601.16;5113329;28;20028;-80
2021/01/10 03:20:45;;;;;;;14.00;9.05;;;;;;;3.64;69.05;102600.06;5103668;28;20031;-80
2021/01/10 03:23:12;;;;;;;13.48;7.80;;;;;;;3.63;68.85;102600.94;5105179;28;20028;-81
2021/01/10 03:25:38;;;;;;;13.50;7.63;;;;;;;3.62;69.17;102601.75;5111648;28;20119;-81
2021/01/10 03:28:14;;;;;;;12.63;8.00;;;;;;;3.65;68.74;102601.84;5099729;28;20028;-79
2021/01/10 03:30:41;;;;;;;11.70;7.63;;;;;;;3.59;68.99;102609.50;5108348;28;20032;-80
2021/01/10 03:33:07;;;;;;;13.23;6.85;;;;;;;3.57;69.01;102606.81;5107122;28;20421;-81
2021/01/10 03:35:34;;;;;;;15.73;9.20;;;;;;;3.55;69.41;102604.16;5101406;28;20070;-81
2021/01/10 03:38:03;;;;;;;13.52;7.95;;;;;;;3.57;69.33;102593.72;5112835;28;20024;-81
2021/01/10 03:40:29;;;;;;;15.05;8.57;;;;;;;3.59;69.51;102599.91;5101257;28;20348;-81
2021/01/10 03:42:56;;;;;;;15.70;8.50;;;;;;;3.60;69.68;102596.47;5106784;28;20089;-80
2021/01/10 03:45:22;;;;;;;12.85;6.53;;;;;;;3.61;69.14;102592.09;5108612;28;20035;-80
2021/01/10 03:47:49;;;;;;;11.85;7.93;;;;;;;3.61;69.51;102584.25;5099312;27;20020;-80
2021/01/10 03:50:16;;;;;;;16.90;9.18;;;;;;;3.60;69.30;102590.31;5116132;28;20093;-81
2021/01/10 03:52:43;;;;;;;16.17;8.88;;;;;;;3.58;69.13;102589.34;5108658;28;20028;-80
2021/01/10 03:55:10;;;;;;;16.45;8.48;;;;;;;3.56;69.23;102590.22;5106700;28;20424;-81
2021/01/10 03:57:38;;;;;;;18.70;9.27;;;;;;;3.58;69.47;102587.63;5100634;28;20498;-80
2021/01/10 04:00:07;;;;;;;13.95;8.27;;;;;;;3.59;69.57;102589.44;5111763;28;20031;-82
2021/01/10 04:02:34;;;;;;;17.13;9.32;;;;;;;3.60;69.42;102585.06;5101977;28;20031;-81
2021/01/10 04:05:01;;;;;;;13.85;7.90;;;;;;;3.61;69.27;102581.63;5105192;28;20068;-81
2021/01/10 04:07:27;;;;;;;12.48;8.63;;;;;;;3.62;69.15;102591.28;5109576;28;20077;-80
2021/01/10 04:09:54;;;;;;;15.32;9.13;;;;;;;3.63;69.40;102590.44;5098331;28;20123;-80
2021/01/10 04:12:20;;;;;;;14.55;8.98;;;;;;;3.64;69.13;102586.97;5103884;28;20032;-80
2021/01/10 04:14:47;;;;;;;15.48;9.65;;;;;;;3.61;69.42;102586.84;5107184;28;20084;-80
2021/01/10 04:17:13;;;;;;;13.18;8.50;;;;;;;3.61;69.02;102582.50;5107360;28;20027;-79
2021/01/10 04:19:42;;;;;;;16.05;9.45;;;;;;;3.62;69.48;102586.03;5099372;28;20028;-82
2021/01/10 04:22:09;;;;;;;18.25;9.45;;;;;;;3.63;69.54;102590.44;5111851;28;20045;-80
2021/01/10 04:24:35;;;;;;;15.73;9.63;;;;;;;3.63;69.18;102583.47;5101256;28;20020;-80
2021/01/10 04:27:12;;;;;;;16.25;8.32;;;;;;;3.66;69.09;102585.28;5094369;28;20086;-82
2021/01/10 04:29:45;;;;;;;14.57;8.82;;;;;;;3.63;69.46;102582.56;5087640;28;20066;-79
2021/01/10 04:32:15;;;;;;;15.60;8.82;;;;;;;3.65;69.68;102583.50;5111556;28;20491;-79
2021/01/10 04:34:46;;;;;;;17.23;9.57;;;;;;;3.60;69.84;102582.44;5102081;28;20027;-80
2021/01/10 04:37:13;;;;;;;14.05;8.65;;;;;;;3.66;69.53;102580.06;5103299;28;20055;-81
2021/01/10 04:39:39;;;;;;;16.15;9.27;;;;;;;3.69;69.61;102580.19;5110123;28;20390;-81
2021/01/10 04:42:07;;;;;;;13.52;8.45;;;;;;;3.72;69.75;102569.78;5098052;28;20085;-80
2021/01/10 04:44:33;;;;;;;16.30;9.27;;;;;;;3.77;69.55;102575.22;5108457;28;20039;-80
2021/01/10 04:47:00;;;;;;;13.57;8.60;;;;;;;3.79;69.82;102570.88;5105299;28;20028;-80
2021/01/10 04:49:27;;;;;;;13.23;7.82;;;;;;;3.80;69.60;102562.19;5100729;28;20102;-81
2021/01/10 04:51:55;;;;;;;15.75;8.73;;;;;;;3.83;69.54;102573.69;5111131;28;20124;-80
2021/01/10 04:54:23;;;;;;;18.10;8.75;;;;;;;3.86;69.33;102567.66;5099234;28;20056;-81
2021/01/10 04:56:51;;;;;;;12.00;7.90;;;;;;;3.88;69.40;102574.75;5106179;28;20028;-80
2021/01/10 04:59:22;;;;;;;13.10;8.40;;;;;;;3.81;69.54;102566.59;5106656;28;20024;-80
2021/01/10 05:01:53;;;;;;;15.38;8.00;;;;;;;3.85;70.02;102566.78;5097845;28;20032;-81
2021/01/10 05:04:20;;;;;;;18.05;7.97;;;;;;;3.86;69.84;102558.06;5109844;28;20031;-81
2021/01/10 05:06:47;;;;;;;13.45;7.57;;;;;;;3.76;70.11;102555.94;5102259;28;20483;-80
2021/01/10 05:09:13;;;;;;;11.13;7.45;;;;;;;3.76;69.92;102555.94;5102336;28;20032;-80
2021/01/10 05:11:40;;;;;;;10.18;7.18;;;;;;;3.78;69.66;102559.53;5099037;28;20483;-81
2021/01/10 05:14:07;;;;;;;13.75;7.20;;;;;;;3.79;69.76;102555.16;5110790;28;20031;-80
2021/01/10 05:16:34;;;;;;;15.50;7.80;;;;;;;3.79;69.39;102545.59;5100447;28;20486;-81
2021/01/10 05:19:02;;;;;;;15.02;7.38;;;;;;;3.77;68.97;102546.38;5103925;28;20032;-81
2021/01/10 05:21:29;;;;;;;11.20;7.30;;;;;;;3.69;69.79;102552.22;5109055;28;20115;-80
2021/01/10 05:23:57;;;;;;;14.85;7.95;;;;;;;3.68;69.43;102552.19;5097214;28;20020;-80
2021/01/10 05:26:33;;;;;;;9.13;6.38;;;;;;;3.78;69.10;102554.28;5106581;27;20071;-81
2021/01/10 05:29:08;;;;;;;14.98;8.13;;;;;;;3.76;69.28;102549.81;5088902;28;20063;-81
2021/01/10 05:31:39;;;;;;;14.00;6.97;;;;;;;3.66;69.17;102549.47;5104823;28;20035;-80
2021/01/10 05:34:07;;;;;;;11.73;7.07;;;;;;;3.62;69.49;102549.34;5110100;28;20023;-81
2021/01/10 05:36:36;;;;;;;15.68;7.65;;;;;;;3.57;69.47;102543.91;5093835;28;20131;-80
2021/01/10 05:42:08;;;;;;;23.40;8.52;;;;;;;3.55;69.39;102538.63;5127581;27;20375;-79
2021/01/10 05:47:20;;;;;;;17.70;8.63;;;;;;;3.48;69.78;102536.59;5090935;28;20654;-80
2021/01/10 05:52:26;;;;;;;12.55;8.73;;;;;;;3.51;69.73;102541.06;5090837;27;20404;-80
2021/01/10 05:54:53;;;;;;;18.60;9.13;;;;;;;3.45;70.22;102538.22;5070478;28;20072;-80
2021/01/10 05:57:27;;;;;;;17.10;7.88;;;;;;;3.52;70.19;102551.59;5070526;28;20092;-79
2021/01/10 05:59:55;;;;;;;13.35;8.43;;;;;;;3.50;69.65;102542.81;5070037;28;20041;-80
2021/01/10 06:02:30;;;;;;;11.23;7.43;;;;;;;3.52;69.63;102538.50;5050647;28;20030;-82
2021/01/10 06:07:57;;;;;;;15.70;8.32;;;;;;;3.33;69.45;102544.81;5119819;27;20347;-79
2021/01/10 06:10:27;;;;;;;13.48;8.55;;;;;;;3.33;69.86;102542.19;5126166;27;20059;-80
2021/01/10 06:13:08;;;;;;;17.17;8.50;;;;;;;3.37;69.40;102546.69;5109151;28;20023;-79
2021/01/10 06:15:36;;;;;;;16.83;9.00;;;;;;;3.30;69.22;102549.94;5115908;27;20028;-79
2021/01/10 06:18:04;;;;;;;14.65;8.80;;;;;;;3.32;69.52;102557.84;5127916;28;20031;-79
2021/01/10 06:20:32;;;;;;;16.50;7.80;;;;;;;3.31;69.53;102551.69;5116779;28;20055;-79
2021/01/10 06:23:03;;;;;;;19.17;9.57;;;;;;;3.22;69.75;102548.75;5121408;27;20111;-79
2021/01/10 06:25:32;;;;;;;11.98;8.70;;;;;;;3.21;69.89;102549.56;5100123;28;20059;-79
2021/01/10 06:28:19;;;;;;;19.75;8.40;;;;;;;3.19;70.32;102556.47;5126712;28;20084;-79
2021/01/10 06:30:57;;;;;;;17.83;8.73;;;;;;;3.30;69.92;102559.50;5122771;27;20070;-79
2021/01/10 06:33:30;;;;;;;14.43;8.63;;;;;;;3.34;70.21;102550.91;5124063;27;20073;-79
2021/01/10 06:36:03;;;;;;;14.40;9.52;;;;;;;3.37;70.00;102548.44;5114215;27;20059;-79
2021/01/10 06:38:35;;;;;;;15.55;9.30;;;;;;;3.41;70.22;102547.69;5125373;27;20065;-79
2021/01/10 06:41:35;;;;;;;16.67;9.20;;;;;;;3.49;70.38;102548.88;5120855;27;20024;-79
2021/01/10 06:44:11;;;;;;;15.57;10.55;;;;;;;3.52;70.36;102559.47;5113526;28;20582;-80
2021/01/10 06:46:38;;;;;;;19.42;9.73;;;;;;;3.44;70.59;102557.41;5123869;27;20027;-79
2021/01/10 06:49:05;;;;;;;17.33;9.35;;;;;;;3.45;70.71;102560.09;5104758;28;20032;-79
2021/01/10 06:51:32;;;;;;;18.52;10.48;;;;;;;3.45;70.41;102565.34;5108519;28;20043;-79
2021/01/10 06:54:04;;;;;;;19.00;9.32;;;;;;;3.57;70.83;102562.25;5118349;28;20535;-79
2021/01/10 06:56:33;;;;;;;14.15;9.60;;;;;;;3.64;70.12;102563.38;5124770;27;20032;-80
2021/01/10 06:59:19;;;;;;;19.67;10.82;;;;;;;3.70;70.14;102553.09;5120005;27;20370;-79
2021/01/10 07:01:58;;;;;;;22.80;11.15;;;;;;;3.68;70.41;102562.66;5113971;27;20360;-79
2021/01/10 07:07:36;;;;;;;20.73;10.27;;;;;;;3.75;70.51;102558.53;5090730;28;20457;-79
2021/01/10 07:10:08;;;;;;;19.70;11.88;;;;;;;3.65;70.66;102557.28;5069031;28;20506;-80
2021/01/10 07:12:35;;;;;;;12.85;8.30;;;;;;;3.68;70.48;102562.66;5050279;28;20026;-79
2021/01/10 07:15:22;;;;;;;17.13;9.07;;;;;;;3.80;70.17;102557.84;5050042;28;20030;-79
2021/01/10 07:20:46;;;;;;;13.25;8.63;;;;;;;3.77;70.22;102554.22;5118798;27;20525;-79
2021/01/10 07:26:38;;;;;;;17.63;9.13;;;;;;;3.92;70.11;102561.75;5087697;27;20398;-80
2021/01/10 07:29:24;;;;;;;16.40;9.32;;;;;;;3.83;70.24;102560.56;5053785;28;20476;-80
2021/01/10 07:31:55;;;;;;;16.65;9.52;;;;;;;3.89;69.98;102568.66;5049402;28;20034;-80
2021/01/10 07:34:22;;;;;;;17.00;9.40;;;;;;;3.92;69.93;102561.75;5048476;28;20021;-78
2021/01/10 07:36:51;;;;;;;15.93;9.98;;;;;;;3.92;70.18;102554.75;5042079;28;20045;-77
2021/01/10 07:39:19;;;;;;;14.73;9.00;;;;;;;3.90;70.17;102559.09;5043967;28;20026;-79
2021/01/10 07:41:46;;;;;;;14.88;8.93;;;;;;;3.84;69.84;102554.50;5050117;28;20037;-77
2021/01/10 07:44:12;;;;;;;17.17;9.88;;;;;;;3.80;69.61;102563.09;5046322;28;20826;-77
2021/01/10 07:46:57;;;;;;;14.18;9.25;;;;;;;3.82;69.48;102561.41;5037187;28;20017;-78
2021/01/10 07:49:26;;;;;;;16.23;10.57;;;;;;;3.67;69.21;102566.13;5036358;28;20026;-80
2021/01/10 07:51:52;;;;;;;14.85;8.63;;;;;;;3.59;68.77;102572.78;5046435;28;20029;-80
2021/01/10 07:54:39;;;;;;;18.80;11.18;;;;;;;3.52;68.68;102567.31;5034160;28;20029;-78
2021/01/10 08:05:35;;;;;;;16.65;8.80;;;;;;;3.54;69.31;102580.50;5110682;27;20824;-79
2021/01/10 08:08:05;;;;;;;14.73;9.52;;;;;;;3.58;69.58;102579.78;5090693;28;20029;-79
2021/01/10 08:16:13;;;;;;;26.02;9.05;;;;;;;3.74;70.13;102568.13;5076281;28;20431;-81
2021/01/10 08:21:25;;;;;;;16.02;8.65;;;;;;;3.77;70.22;102567.34;5071160;28;20373;-78
2021/01/10 08:23:54;;;;;;;15.73;7.78;;;;;;;3.84;70.14;102570.22;5053483;28;20135;-79
2021/01/10 08:26:21;;;;;;;16.45;7.47;;;;;;;3.83;69.92;102567.56;5066119;28;20064;-79
2021/01/10 08:28:49;;;;;;;13.68;6.43;;;;;;;3.81;70.67;102566.59;5058168;28;20025;-78
2021/01/10 08:31:19;;;;;;;12.52;6.07;;;;;;;3.93;70.07;102571.41;5057617;28;20033;-79
2021/01/10 08:33:48;;;;;;;11.07;5.88;;;;;;;3.96;70.21;102569.78;5049389;28;20025;-79
2021/01/10 08:36:18;;;;;;;12.48;5.88;;;;;;;3.98;69.50;102573.34;5049862;28;20060;-79
2021/01/10 08:38:50;;;;;;;14.00;6.65;;;;;;;3.97;69.38;102578.53;5050283;28;20041;-78
2021/01/10 08:41:36;;;;;;;14.07;5.30;;;;;;;4.04;69.10;102572.69;5050489;28;20568;-79
2021/01/10 08:44:05;;;;;;;12.25;5.82;;;;;;;3.95;69.30;102588.06;5055781;28;20029;-79
2021/01/10 08:46:34;;;;;;;9.73;6.05;;;;;;;3.92;69.16;102582.72;5048999;28;20108;-80
2021/01/10 08:49:01;;;;;;;11.73;6.00;;;;;;;3.88;69.06;102582.59;5048995;28;20037;-78
2021/01/10 08:54:09;;;;;;;11.93;5.78;;;;;;;3.84;69.09;102585.09;5083866;27;20736;-79
2021/01/10 08:56:37;;;;;;;11.57;5.18;;;;;;;3.79;69.34;102584.91;5085019;28;20028;-78
2021/01/10 08:59:04;;;;;;;8.88;4.75;;;;;;;3.76;69.60;102581.28;5087407;28;20028;-79
2021/01/10 09:01:31;;;;;;;9.82;5.05;;;;;;;3.73;69.34;102587.31;5069810;28;20079;-78
2021/01/10 09:04:14;;;;;;;6.82;4.43;;;;;;;3.89;69.35;102594.00;5051911;28;20037;-84
2021/01/10 09:09:43;;;;;;;16.25;6.07;;;;;;;3.86;69.12;102599.13;5152119;27;20360;-79
2021/01/10 09:14:57;;;;;;;10.60;4.25;;;;;;;3.83;69.51;102599.91;5112567;27;20351;-82
2021/01/10 09:17:29;;;;;;;8.98;4.57;;;;;;;3.88;69.19;102602.72;5105716;28;20032;-82
2021/01/10 09:20:04;;;;;;;10.18;4.95;;;;;;;3.92;69.25;102599.34;5107793;28;20368;-79
2021/01/10 09:22:33;;;;;;;10.70;4.35;;;;;;;3.88;69.82;102608.81;5088142;28;20051;-77
2021/01/10 09:25:09;;;;;;;8.05;4.38;;;;;;;4.02;69.54;102603.19;5091033;28;20038;-79
2021/01/10 09:27:36;;;;;;;9.15;4.15;;;;;;;4.04;69.58;102601.53;5089638;28;20558;-80
2021/01/10 09:30:05;;;;;;;12.20;4.88;;;;;;;4.10;69.54;102604.38;5091789;28;20429;-80
2021/01/10 09:32:34;;;;;;;8.23;3.97;;;;;;;4.19;69.56;102604.69;5085414;28;20025;-80
2021/01/10 09:35:00;;;;;;;10.93;3.70;;;;;;;4.20;69.82;102602.97;5088416;28;20034;-80
2021/01/10 09:37:31;;;;;;;6.57;3.60;;;;;;;4.30;69.58;102596.28;5088336;28;20028;-80
2021/01/10 09:40:13;;;;;;;8.18;4.28;;;;;;;4.44;69.47;102589.78;5087079;28;20025;-80
2021/01/10 09:42:44;;;;;;;10.57;4.00;;;;;;;4.40;69.39;102594.84;5089892;28;20040;-80
2021/01/10 09:45:11;;;;;;;10.65;3.13;;;;;;;4.49;69.45;102588.19;5088238;28;20674;-77
2021/01/10 09:47:38;;;;;;;8.73;3.67;;;;;;;4.54;69.53;102591.84;5087618;28;20395;-77
2021/01/10 09:50:19;;;;;;;8.20;3.78;;;;;;;4.65;69.41;102583.47;5091260;28;20056;-78
2021/01/10 09:52:47;;;;;;;7.70;3.45;;;;;;;4.66;69.35;102587.84;5087738;28;20083;-77
2021/01/10 09:55:14;;;;;;;12.38;3.95;;;;;;;4.70;69.29;102588.00;5087711;28;20024;-77
2021/01/10 09:57:40;;;;;;;6.70;3.88;;;;;;;4.75;69.47;102590.78;5092630;28;20040;-80
2021/01/10 10:00:13;;;;;;;8.73;3.67;;;;;;;4.85;69.35;102582.34;5095255;28;20107;-83
2021/01/10 10:02:40;;;;;;;8.07;3.63;;;;;;;4.92;69.27;102578.19;5091487;28;20050;-84
2021/01/10 10:08:02;;;;;;;11.38;3.72;;;;;;;5.12;68.61;102578.81;5113020;27;20351;-82
2021/01/10 10:10:31;;;;;;;10.77;4.00;;;;;;;5.12;68.79;102586.69;5103824;28;20430;-79
2021/01/10 10:13:00;;;;;;;14.32;4.45;;;;;;;5.18;68.62;102585.97;5088515;28;20399;-79
2021/01/10 10:15:45;;;;;;;6.80;4.18;;;;;;;5.38;68.47;102590.94;5085935;28;20375;-80
2021/01/10 10:18:24;;;;;;;9.82;4.50;;;;;;;5.34;69.05;102593.47;5088568;28;20158;-79
2021/01/10 10:20:51;;;;;;;13.90;5.10;;;;;;;5.37;69.04;102586.53;5084641;28;20032;-82
2021/01/10 10:23:19;;;;;;;10.20;5.55;;;;;;;5.42;69.18;102585.81;5087996;28;20029;-82
2021/01/10 10:25:50;;;;;;;8.30;4.55;;;;;;;5.60;68.69;102587.22;5089363;28;20421;-80
2021/01/10 10:28:17;;;;;;;8.00;4.03;;;;;;;5.61;68.66;102586.38;5086752;28;20066;-80
2021/01/10 10:30:45;;;;;;;12.73;4.78;;;;;;;5.77;68.57;102592.91;5086756;28;20555;-82
2021/01/10 10:33:11;;;;;;;9.80;4.57;;;;;;;5.78;68.41;102585.09;5084409;28;20055;-80
2021/01/10 10:35:38;;;;;;;8.30;5.18;;;;;;;5.95;68.30;102582.91;5087090;28;20550;-81
2021/01/10 10:38:05;;;;;;;8.95;5.43;;;;;;;6.02;68.22;102577.84;5086343;28;20056;-80
2021/01/10 10:40:32;;;;;;;9.25;5.15;;;;;;;6.18;67.87;102579.16;5089850;28;20028;-77
2021/01/10 10:42:59;;;;;;;13.90;6.45;;;;;;;6.21;68.03;102568.72;5089382;28;20115;-80
2021/01/10 10:45:26;;;;;;;11.23;4.43;;;;;;;6.23;68.16;102557.38;5089326;28;20067;-80
2021/01/10 10:47:52;;;;;;;9.05;4.82;;;;;;;6.47;67.65;102557.09;5087829;28;20070;-85
2021/01/10 10:50:18;;;;;;;10.20;5.07;;;;;;;6.56;67.58;102558.19;5089258;28;20480;-82
2021/01/10 10:52:45;;;;;;;15.27;5.93;;;;;;;6.62;67.52;102555.69;5087645;28;20041;-86
2021/01/10 10:55:12;;;;;;;12.85;4.97;;;;;;;6.83;67.26;102555.31;5087902;28;20056;-80
2021/01/10 10:57:41;;;;;;;9.50;5.10;;;;;;;6.97;67.35;102542.44;5089744;28;20040;-81
2021/01/10 11:00:08;;;;;;;9.68;5.35;;;;;;;7.16;66.95;102535.81;5089376;28;20032;-79
2021/01/10 11:02:34;;;;;;;11.23;5.32;;;;;;;7.27;66.25;102538.69;5089299;28;20054;-80
2021/01/10 11:05:00;;;;;;;14.30;5.35;;;;;;;7.34;66.43;102540.59;5088930;28;20107;-80
2021/01/10 11:07:27;;;;;;;9.05;5.78;;;;;;;7.39;66.04;102538.94;5088960;28;20437;-80
2021/01/10 11:09:54;;;;;;;8.75;5.20;;;;;;;7.38;65.61;102544.19;5088874;28;20074;-81
2021/01/10 11:12:20;;;;;;;10.63;6.00;;;;;;;7.24;64.13;102544.78;5089585;28;20032;-81
2021/01/10 11:14:46;;;;;;;12.35;5.60;;;;;;;7.25;65.48;102545.66;5089332;28;20060;-80
2021/01/10 11:17:14;;;;;;;11.55;5.15;;;;;;;7.19;65.74;102537.63;5086709;28;20078;-81
2021/01/10 11:19:40;;;;;;;8.15;5.15;;;;;;;7.30;65.33;102536.09;5075113;28;20028;-80
2021/01/10 11:22:08;;;;;;;12.93;5.65;;;;;;;7.24;64.86;102541.25;5075713;28;20471;-81
2021/01/10 11:24:35;;;;;;;9.85;5.25;;;;;;;7.19;65.09;102538.53;5075193;28;20031;-82
2021/01/10 11:27:02;;;;;;;11.00;4.85;;;;;;;7.30;65.35;102536.09;5075877;28;20576;-79
2021/01/10 11:29:28;;;;;;;9.82;6.05;;;;;;;7.27;65.07;102528.13;5075653;28;20035;-80
2021/01/10 11:31:55;;;;;;;9.93;6.30;;;;;;;7.28;64.83;102528.16;5075195;28;20112;-80
2021/01/10 11:34:23;;;;;;;10.32;5.63;;;;;;;7.27;64.88;102523.75;5074933;28;20499;-80
2021/01/10 11:36:52;;;;;;;14.35;5.65;;;;;;;7.30;64.63;102522.91;5075141;28;20082;-81
2021/01/10 11:39:20;;;;;;;11.35;6.43;;;;;;;7.39;64.94;102517.84;5074757;28;20033;-80
2021/01/10 11:41:49;;;;;;;15.25;6.63;;;;;;;7.45;64.85;102520.59;5075676;28;20035;-81
2021/01/10 11:44:17;;;;;;;9.40;4.85;;;;;;;7.48;64.85;102519.78;5075308;28;20020;-80
2021/01/10 11:46:47;;;;;;;7.70;4.63;;;;;;;7.58;64.16;102526.13;5075075;28;20029;-81
2021/01/10 11:49:14;;;;;;;9.63;6.10;;;;;;;7.69;64.39;102518.41;5074639;28;20480;-80
2021/01/10 11:51:40;;;;;;;9.90;5.00;;;;;;;7.70;63.67;102510.53;5074862;28;20506;-79
2021/01/10 11:54:07;;;;;;;7.05;4.53;;;;;;;7.92;62.60;102510.91;5074531;28;20062;-80
2021/01/10 11:56:34;;;;;;;13.27;5.63;;;;;;;7.96;62.79;102507.47;5075242;28;20070;-80
2021/01/10 11:59:00;;;;;;;10.25;6.10;;;;;;;7.93;61.18;102508.28;5075126;28;20032;-81
2021/01/10 12:01:31;;;;;;;10.88;6.30;;;;;;;8.06;59.63;102503.22;5073409;28;20097;-84
2021/01/10 12:03:58;;;;;;;13.80;6.03;;;;;;;8.12;60.92;102508.63;5073030;28;20411;-82
2021/01/10 12:06:24;;;;;;;11.40;5.70;;;;;;;8.15;60.24;102497.22;5073625;28;20039;-91
2021/01/10 12:08:51;;;;;;;11.52;5.60;;;;;;;8.03;59.95;102493.50;5072370;28;20028;-82
2021/01/10 12:11:18;;;;;;;11.00;4.95;;;;;;;7.93;60.40;102496.88;5073450;28;20029;-82
2021/01/10 12:13:46;;;;;;;9.25;5.15;;;;;;;7.94;60.50;102496.00;5073203;28;20040;-80
2021/01/10 12:16:13;;;;;;;11.00;5.93;;;;;;;7.86;59.51;102495.88;5071621;28;20063;-78
2021/01/10 12:18:40;;;;;;;10.50;6.10;;;;;;;7.98;60.02;102489.91;5073361;28;20107;-77
2021/01/10 12:21:08;;;;;;;11.27;5.72;;;;;;;7.91;60.29;102496.84;5073870;28;20031;-77
2021/01/10 12:23:37;;;;;;;11.75;6.30;;;;;;;7.82;60.02;102498.44;5072988;28;20027;-78
2021/01/10 12:26:09;;;;;;;12.65;5.93;;;;;;;7.82;60.23;102494.03;5073439;28;20032;-80
2021/01/10 12:28:36;;;;;;;10.35;6.20;;;;;;;7.74;60.75;102496.53;5071160;28;20058;-78
2021/01/10 12:31:03;;;;;;;10.60;6.43;;;;;;;7.75;60.56;102493.03;5074869;28;20037;-78